Time;durP1;ratioP1;P1;durP2;ratioP2;P2;SDS_P1;SDS_P2;PMS_P1;PMS_P2;Temp;Humidity;BMP_temperature;BMP_pressure;BME280_temperature;BME280_humidity;BME280_pressure;Samples;Min_cycle;Max_cycle;Signal;HPM_P1;HPM_P2
2024/02/16 00:01:54;;;;;;;6.20;2.90;;;;;;;10.43;100.00;100019.94;10441680;28;20044;-78
2024/02/16 00:06:59;;;;;;;7.65;2.72;;;;;;;10.48;100.00;100017.72;10453050;28;20047;-80
2024/02/16 00:12:02;;;;;;;5.53;2.78;;;;;;;10.51;100.00;100030.88;10446135;28;20045;-82
2024/02/16 00:17:06;;;;;;;5.15;2.65;;;;;;;10.49;100.00;100022.09;10452648;28;20408;-80
2024/02/16 00:22:12;;;;;;;5.32;3.00;;;;;;;10.43;100.00;100014.56;10444784;28;20429;-81
2024/02/16 00:27:16;;;;;;;6.88;2.13;;;;;;;10.58;99.11;100014.06;10445177;28;20043;-80
2024/02/16 00:32:19;;;;;;;3.83;2.42;;;;;;;10.60;98.71;100005.91;10442640;28;20060;-78
2024/02/16 00:37:24;;;;;;;9.15;2.53;;;;;;;10.65;97.47;100000.13;10437785;28;20508;-81
2024/02/16 00:42:28;;;;;;;10.13;2.58;;;;;;;10.61;97.26;99999.53;10445788;28;20097;-80
2024/02/16 00:47:31;;;;;;;7.50;2.20;;;;;;;10.67;96.48;99998.16;10446396;28;20042;-79
2024/02/16 00:52:36;;;;;;;4.53;2.80;;;;;;;10.62;96.47;99995.88;10446874;28;20636;-81
2024/02/16 00:57:39;;;;;;;4.40;2.38;;;;;;;10.62;95.98;99998.56;10445903;28;20049;-80
2024/02/16 01:02:42;;;;;;;10.70;2.60;;;;;;;10.65;95.20;100008.19;10437919;28;20077;-80
2024/02/16 01:07:47;;;;;;;3.35;2.40;;;;;;;10.66;94.88;100004.50;10444941;28;20057;-83
2024/02/16 01:12:51;;;;;;;4.07;2.50;;;;;;;10.57;95.07;99995.44;10441420;28;20049;-80
2024/02/16 01:17:54;;;;;;;5.10;2.28;;;;;;;10.64;94.32;100006.47;10442943;28;20046;-79
2024/02/16 01:22:59;;;;;;;4.35;3.15;;;;;;;10.66;93.40;99997.31;10442364;28;20041;-78
2024/02/16 01:28:02;;;;;;;5.45;2.30;;;;;;;10.70;92.36;100001.44;10441519;28;20049;-80
2024/02/16 01:33:06;;;;;;;5.18;1.98;;;;;;;10.76;91.37;100000.03;10443644;28;20397;-80
2024/02/16 01:38:10;;;;;;;4.53;1.77;;;;;;;10.74;90.55;99991.25;10438186;28;20029;-81
2024/02/16 01:43:13;;;;;;;5.38;1.73;;;;;;;10.71;90.02;99995.06;10436432;28;20111;-80
2024/02/16 01:48:17;;;;;;;6.90;2.05;;;;;;;10.64;89.93;99988.53;10444954;28;20858;-80
2024/02/16 01:53:23;;;;;;;4.47;2.20;;;;;;;10.66;89.66;99983.03;10442963;28;20471;-78
2024/02/16 01:58:28;;;;;;;6.13;2.30;;;;;;;10.70;89.23;99987.16;10448089;28;20629;-81
2024/02/16 02:03:31;;;;;;;5.63;2.13;;;;;;;10.70;88.97;99988.00;10433214;28;20124;-80
2024/02/16 02:08:36;;;;;;;3.53;1.98;;;;;;;10.69;88.89;99980.91;10436576;28;20045;-80
2024/02/16 02:13:39;;;;;;;6.40;2.08;;;;;;;10.51;89.74;99977.16;10440835;28;20033;-82
2024/02/16 02:18:43;;;;;;;3.25;1.85;;;;;;;10.24;92.99;99981.25;10435047;28;20040;-81
2024/02/16 02:23:47;;;;;;;6.82;2.00;;;;;;;10.11;95.26;99972.56;10446734;28;20041;-82
2024/02/16 02:28:50;;;;;;;5.30;2.00;;;;;;;10.09;96.05;99959.28;10436112;28;20036;-82
2024/02/16 02:33:53;;;;;;;3.70;2.28;;;;;;;10.07;96.15;99953.19;10438823;28;20049;-80
2024/02/16 02:38:58;;;;;;;6.13;2.00;;;;;;;10.11;96.33;99948.41;10437921;28;20033;-83
2024/02/16 02:44:01;;;;;;;4.88;1.85;;;;;;;10.18;95.27;99944.22;10437272;28;20077;-79
2024/02/16 02:49:04;;;;;;;3.45;2.10;;;;;;;10.21;94.88;99941.25;10440707;28;20551;-80
2024/02/16 02:54:09;;;;;;;3.28;1.90;;;;;;;10.25;94.84;99939.16;10437299;28;20086;-82
2024/02/16 02:59:12;;;;;;;3.47;2.20;;;;;;;10.22;94.93;99936.72;10451352;28;20558;-83
2024/02/16 03:04:15;;;;;;;4.43;2.17;;;;;;;10.19;94.89;99926.28;10443489;28;20065;-80
2024/02/16 03:09:19;;;;;;;6.63;2.53;;;;;;;10.23;94.44;99928.56;10441331;28;20047;-81
2024/02/16 03:14:22;;;;;;;6.65;2.17;;;;;;;10.25;94.21;99925.72;10448847;28;20126;-81
2024/02/16 03:19:26;;;;;;;4.13;2.22;;;;;;;10.17;94.14;99912.97;10439666;28;20488;-80
2024/02/16 03:24:30;;;;;;;4.35;2.35;;;;;;;10.20;93.97;99917.22;10450998;28;20048;-82
2024/02/16 03:29:33;;;;;;;5.35;2.38;;;;;;;10.20;93.86;99917.22;10449262;28;20479;-82
2024/02/16 03:34:36;;;;;;;5.22;1.80;;;;;;;10.25;93.40;99920.34;10436821;28;20037;-80
2024/02/16 03:39:43;;;;;;;3.95;2.22;;;;;;;10.23;93.30;99923.19;10455392;28;20072;-78
2024/02/16 03:44:46;;;;;;;6.03;2.38;;;;;;;10.15;93.96;99906.91;10437805;28;20041;-83
2024/02/16 03:49:49;;;;;;;4.53;1.98;;;;;;;10.00;95.26;99909.06;10446971;28;20032;-81
2024/02/16 03:54:53;;;;;;;5.28;2.60;;;;;;;10.03;95.38;99907.97;10444134;28;20029;-81
2024/02/16 03:59:56;;;;;;;3.72;2.38;;;;;;;10.00;95.52;99908.22;10440090;28;20041;-80
2024/02/16 04:04:59;;;;;;;4.00;2.28;;;;;;;9.94;96.33;99906.91;10443082;28;20045;-82
2024/02/16 04:10:04;;;;;;;7.05;2.42;;;;;;;9.91;96.67;99923.28;10432751;28;20064;-79
2024/02/16 04:15:08;;;;;;;7.65;3.25;;;;;;;9.85;96.85;99919.25;10436174;28;20045;-80
2024/02/16 04:20:11;;;;;;;2.67;2.25;;;;;;;9.88;96.97;99910.97;10444978;28;20036;-79
2024/02/16 04:25:16;;;;;;;4.78;2.50;;;;;;;9.92;96.82;99919.59;10446334;28;20080;-81
2024/02/16 04:30:19;;;;;;;11.30;3.95;;;;;;;9.91;96.79;99934.00;10441705;28;20049;-79
2024/02/16 04:35:22;;;;;;;6.28;2.35;;;;;;;9.86;97.35;99933.56;10442562;28;20056;-79
2024/02/16 04:40:27;;;;;;;2.65;2.10;;;;;;;9.85;97.48;99921.09;10438048;28;20049;-81
2024/02/16 04:45:30;;;;;;;2.63;2.20;;;;;;;9.85;97.48;99923.78;10442762;28;20048;-80
2024/02/16 04:50:34;;;;;;;3.05;2.10;;;;;;;9.79;97.78;99930.53;10449926;28;20090;-82
2024/02/16 04:55:38;;;;;;;3.83;2.30;;;;;;;9.79;97.95;99930.53;10446092;28;20068;-81
2024/02/16 05:00:41;;;;;;;6.63;2.65;;;;;;;9.73;98.30;99925.66;10438183;28;20116;-81
2024/02/16 05:05:45;;;;;;;6.60;2.47;;;;;;;9.65;99.15;99918.28;10441220;28;20335;-81
2024/02/16 05:10:49;;;;;;;5.45;2.40;;;;;;;9.64;99.23;99923.75;10441017;28;20029;-80
2024/02/16 05:15:54;;;;;;;6.88;2.47;;;;;;;9.65;99.01;99918.28;10439418;28;20076;-81
2024/02/16 05:20:57;;;;;;;8.38;3.38;;;;;;;9.67;98.48;99912.78;10446043;28;20645;-82
2024/02/16 05:26:02;;;;;;;6.10;2.20;;;;;;;9.63;98.39;99904.16;10440961;28;20033;-82
2024/02/16 05:31:17;;;;;;;3.72;2.40;;;;;;;9.65;98.24;99901.31;10441608;28;20045;-79
2024/02/16 05:36:24;;;;;;;5.00;2.80;;;;;;;9.62;98.10;99909.63;10439281;28;20052;-80
2024/02/16 05:41:29;;;;;;;4.00;2.15;;;;;;;9.60;98.39;99907.09;10442562;28;20108;-79
2024/02/16 05:46:32;;;;;;;3.15;2.25;;;;;;;9.59;98.19;99891.97;10447341;28;20522;-80
2024/02/16 05:51:36;;;;;;;5.10;2.75;;;;;;;9.57;98.01;99888.59;10452345;28;20040;-79
2024/02/16 05:56:40;;;;;;;5.57;2.30;;;;;;;9.56;98.15;99891.38;10452786;28;20049;-80
2024/02/16 06:01:43;;;;;;;4.75;2.50;;;;;;;9.55;97.75;99898.59;10449138;28;20404;-82
2024/02/16 06:06:46;;;;;;;6.10;2.28;;;;;;;9.61;97.35;99898.06;10437028;28;20037;-79
2024/02/16 06:11:51;;;;;;;2.95;1.98;;;;;;;9.65;96.59;99898.63;10452023;28;20067;-82
2024/02/16 06:16:54;;;;;;;6.20;2.15;;;;;;;9.67;96.05;99908.25;10452622;28;20029;-77
2024/02/16 06:21:57;;;;;;;6.80;2.50;;;;;;;9.70;95.51;99909.81;10467062;28;20060;-77
2024/02/16 06:27:03;;;;;;;5.65;2.30;;;;;;;9.72;95.34;99907.88;10456767;28;20044;-77
2024/02/16 06:32:06;;;;;;;4.88;2.25;;;;;;;9.70;95.43;99912.50;10452191;28;20077;-78
2024/02/16 06:37:09;;;;;;;5.07;2.45;;;;;;;9.69;95.59;99913.50;10474630;28;20056;-77
2024/02/16 06:42:13;;;;;;;4.95;2.10;;;;;;;9.73;95.64;99921.13;10476594;28;20055;-78
2024/02/16 06:47:16;;;;;;;5.18;3.13;;;;;;;9.79;95.27;99913.56;10475536;28;20135;-77
2024/02/16 06:52:19;;;;;;;6.07;2.58;;;;;;;9.81;95.20;99915.13;10466280;28;20132;-78
2024/02/16 06:57:25;;;;;;;3.80;2.17;;;;;;;9.91;94.00;99909.88;10466930;28;20041;-77
2024/02/16 07:02:28;;;;;;;5.60;2.90;;;;;;;10.15;92.45;99925.69;10461932;28;20045;-77
2024/02/16 07:07:32;;;;;;;4.65;2.85;;;;;;;10.34;91.77;99931.16;10479433;28;20097;-80
2024/02/16 07:12:36;;;;;;;5.80;2.60;;;;;;;10.43;91.38;99932.19;10481960;28;20065;-79
2024/02/16 07:17:39;;;;;;;6.18;2.40;;;;;;;10.51;91.42;99951.16;10476199;28;20041;-81
2024/02/16 07:22:43;;;;;;;6.32;1.70;;;;;;;10.73;89.80;99947.44;10463259;28;20111;-81
2024/02/16 07:27:48;;;;;;;4.07;2.20;;;;;;;10.95;87.30;99946.38;10471046;28;20033;-77
2024/02/16 07:32:52;;;;;;;5.85;2.80;;;;;;;11.30;84.98;99954.94;10456059;28;20065;-80
2024/02/16 07:37:55;;;;;;;4.60;2.72;;;;;;;11.64;82.92;99950.88;10448963;28;20045;-81
2024/02/16 07:43:00;;;;;;;5.70;2.85;;;;;;;11.79;81.67;99947.75;10444864;28;20040;-79
2024/02/16 07:48:05;;;;;;;6.38;2.22;;;;;;;11.88;81.11;99949.59;10445346;28;20051;-80
2024/02/16 07:53:09;;;;;;;9.98;4.25;;;;;;;11.83;80.87;99938.41;10446542;28;20071;-79
2024/02/16 07:58:14;;;;;;;4.78;2.60;;;;;;;11.97;80.49;99939.81;10450588;28;20036;-79
2024/02/16 08:03:17;;;;;;;2.47;2.10;;;;;;;12.12;80.08;99935.66;10455244;28;20041;-77
2024/02/16 08:08:20;;;;;;;4.22;2.00;;;;;;;12.26;80.09;99927.13;10476493;28;20049;-80
2024/02/16 08:13:24;;;;;;;4.47;3.35;;;;;;;12.22;79.80;99922.16;10452631;28;20492;-81
2024/02/16 08:18:27;;;;;;;11.50;5.32;;;;;;;12.25;79.82;99938.03;10452207;28;20069;-80
2024/02/16 08:23:31;;;;;;;3.78;3.20;;;;;;;12.26;79.76;99937.03;10444389;28;20055;-80
2024/02/16 08:28:35;;;;;;;3.53;2.15;;;;;;;12.19;80.91;99952.94;10453710;28;20484;-80
2024/02/16 08:33:38;;;;;;;4.82;2.65;;;;;;;12.11;81.54;99950.94;10455509;28;20063;-80
2024/02/16 08:38:42;;;;;;;8.32;3.25;;;;;;;11.96;82.60;99947.03;10452759;28;20068;-79
2024/02/16 08:43:47;;;;;;;4.57;2.45;;;;;;;12.06;83.11;99945.16;10449339;28;20072;-80
2024/02/16 08:48:50;;;;;;;6.22;3.10;;;;;;;12.27;83.06;99947.66;10444114;28;20045;-80
2024/02/16 08:53:53;;;;;;;7.82;2.10;;;;;;;12.37;80.27;99959.31;10448947;28;20047;-79
2024/02/16 08:58:57;;;;;;;3.78;2.00;;;;;;;12.93;76.48;99975.53;10455348;28;20048;-80
2024/02/16 09:04:01;;;;;;;2.80;1.67;;;;;;;13.14;75.11;99980.69;10457537;28;20123;-78
2024/02/16 09:09:04;;;;;;;2.60;1.80;;;;;;;13.16;75.11;99992.13;10448359;28;20140;-80
2024/02/16 09:14:09;;;;;;;3.22;1.80;;;;;;;13.32;74.07;99986.94;10450695;28;20410;-79
2024/02/16 09:19:12;;;;;;;6.20;2.03;;;;;;;13.38;73.95;99999.00;10450037;28;20064;-78
2024/02/16 09:24:17;;;;;;;3.10;1.90;;;;;;;13.30;74.31;99986.22;10453386;28;20041;-80
2024/02/16 09:29:22;;;;;;;4.40;1.83;;;;;;;13.53;73.69;99985.84;10453770;28;20045;-80
2024/02/16 09:34:25;;;;;;;4.65;2.10;;;;;;;13.58;73.03;99994.34;10456683;28;20098;-78
2024/02/16 09:39:28;;;;;;;3.75;2.13;;;;;;;13.78;72.07;100001.25;10455969;28;20412;-78
2024/02/16 09:44:36;;;;;;;2.00;1.50;;;;;;;13.77;72.28;100010.38;10454417;28;20056;-80
2024/02/16 09:49:40;;;;;;;9.45;2.08;;;;;;;14.05;71.24;100008.41;10450516;28;20040;-79
2024/02/16 09:54:44;;;;;;;6.03;2.53;;;;;;;13.83;71.67;100007.06;10444020;28;20055;-79
2024/02/16 09:59:48;;;;;;;2.78;1.98;;;;;;;13.98;71.63;100010.03;10454457;28;20044;-80
2024/02/16 10:04:54;;;;;;;4.80;2.40;;;;;;;13.79;71.29;100019.16;10478895;28;20048;-80
2024/02/16 10:09:57;;;;;;;3.28;1.90;;;;;;;13.76;72.46;100024.00;10454570;28;20029;-79
2024/02/16 10:15:04;;;;;;;7.57;1.95;;;;;;;13.88;74.43;100031.75;10440719;28;20079;-79
2024/02/16 10:20:11;;;;;;;5.35;2.00;;;;;;;13.84;74.23;100043.84;10458395;28;20093;-78
2024/02/16 10:25:14;;;;;;;4.10;1.95;;;;;;;13.88;73.47;100045.25;10451516;28;20064;-80
2024/02/16 10:30:20;;;;;;;3.90;2.15;;;;;;;14.23;71.90;100037.25;10448024;28;20116;-79
2024/02/16 10:35:26;;;;;;;5.47;1.90;;;;;;;14.46;71.59;100046.59;10453453;28;20041;-78
2024/02/16 10:40:29;;;;;;;3.75;2.10;;;;;;;14.01;73.22;100058.34;10443574;28;20037;-80
2024/02/16 10:45:36;;;;;;;2.63;1.33;;;;;;;13.99;72.41;100048.69;10441901;28;20119;-80
2024/02/16 10:50:39;;;;;;;5.45;2.40;;;;;;;14.13;73.00;100061.66;10441905;28;20069;-81
2024/02/16 10:55:43;;;;;;;10.20;2.60;;;;;;;14.01;73.41;100058.34;10452289;28;20033;-80
2024/02/16 11:00:55;;;;;;;10.55;2.33;;;;;;;14.19;73.52;100038.59;10452585;28;20085;-79
2024/02/16 11:05:59;;;;;;;6.30;2.45;;;;;;;14.20;74.82;100045.69;10447183;28;20199;-80
2024/02/16 11:11:03;;;;;;;2.95;1.83;;;;;;;13.83;76.75;100057.50;10450539;28;20097;-78
2024/02/16 11:16:10;;;;;;;4.50;2.05;;;;;;;13.70;77.03;100063.25;10447085;28;20029;-79
2024/02/16 11:21:13;;;;;;;7.95;2.55;;;;;;;13.96;77.09;100062.50;10440724;28;20519;-78
2024/02/16 11:26:19;;;;;;;3.88;2.45;;;;;;;13.83;76.69;100058.34;10451162;28;20121;-81
2024/02/16 11:31:24;;;;;;;10.07;2.88;;;;;;;14.00;76.10;100066.59;10450113;28;20092;-80
2024/02/16 11:36:28;;;;;;;6.95;2.83;;;;;;;13.57;78.24;100079.81;10451560;28;20077;-78
2024/02/16 11:41:31;;;;;;;7.57;2.58;;;;;;;13.83;77.86;100077.25;10450210;28;20373;-80
2024/02/16 11:46:35;;;;;;;6.93;3.05;;;;;;;14.11;77.20;100083.41;10462926;28;20048;-80
2024/02/16 11:51:39;;;;;;;8.57;3.00;;;;;;;13.73;79.51;100089.94;10452842;28;20485;-80
2024/02/16 11:56:45;;;;;;;5.32;2.70;;;;;;;13.70;78.71;100091.09;10451219;28;20041;-81
2024/02/16 12:01:54;;;;;;;4.13;2.10;;;;;;;13.78;78.33;100103.00;10464077;28;20038;-81
2024/02/16 12:06:58;;;;;;;5.03;2.45;;;;;;;13.91;78.43;100111.59;10452604;28;20412;-81
2024/02/16 12:12:08;;;;;;;7.63;2.58;;;;;;;13.83;78.76;100096.13;10447875;28;20091;-81
2024/02/16 12:17:12;;;;;;;3.78;2.42;;;;;;;14.14;77.54;100114.66;10475528;28;20044;-80
2024/02/16 12:22:18;;;;;;;7.07;2.92;;;;;;;14.18;78.04;100115.19;10453761;28;20140;-79
2024/02/16 12:27:21;;;;;;;7.95;3.03;;;;;;;13.88;79.38;100120.00;10453229;28;20041;-81
2024/02/16 12:32:26;;;;;;;4.65;2.83;;;;;;;14.16;77.70;100112.66;10458348;28;20061;-80
2024/02/16 12:37:29;;;;;;;6.47;2.88;;;;;;;14.04;77.46;100113.88;10458402;28;20112;-80
2024/02/16 12:42:32;;;;;;;5.00;2.42;;;;;;;14.11;77.79;100117.69;10453166;28;20045;-81
2024/02/16 12:47:37;;;;;;;4.20;2.53;;;;;;;13.68;79.57;100128.19;10458788;28;20065;-81
2024/02/16 12:52:39;;;;;;;3.83;2.75;;;;;;;14.09;78.26;100125.09;10465091;28;20110;-81
2024/02/16 12:57:56;;;;;;;3.95;2.25;;;;;;;13.61;80.55;100132.50;10448610;28;20041;-81
2024/02/16 13:03:01;;;;;;;7.90;3.45;;;;;;;13.69;81.25;100118.25;10448858;28;20082;-81
2024/02/16 13:08:04;;;;;;;7.65;3.33;;;;;;;13.73;80.57;100138.53;10458981;28;20154;-79
2024/02/16 13:13:07;;;;;;;8.90;3.20;;;;;;;13.92;79.78;100135.72;10448129;28;20048;-79
2024/02/16 13:18:12;;;;;;;11.38;3.63;;;;;;;14.06;79.43;100136.19;10446034;28;20114;-80
2024/02/16 13:23:15;;;;;;;9.45;3.97;;;;;;;13.86;80.77;100139.03;10441703;28;20056;-79
2024/02/16 13:28:18;;;;;;;10.85;4.82;;;;;;;13.57;82.48;100149.97;10445473;28;20060;-80
2024/02/16 13:33:22;;;;;;;9.45;5.25;;;;;;;13.50;83.52;100151.59;10444694;28;20096;-80
2024/02/16 13:38:25;;;;;;;14.90;6.05;;;;;;;13.64;83.66;100161.03;10449636;28;20556;-78
2024/02/16 13:43:29;;;;;;;13.52;7.60;;;;;;;13.64;84.40;100150.25;10452163;28;20064;-80
2024/02/16 13:48:37;;;;;;;15.98;7.45;;;;;;;13.34;86.51;100172.91;10458223;28;20053;-80
2024/02/16 13:53:40;;;;;;;12.60;5.45;;;;;;;13.27;86.60;100176.22;10460339;28;20054;-79
2024/02/16 13:58:43;;;;;;;11.93;7.75;;;;;;;13.51;85.85;100160.53;10442440;28;20033;-81
2024/02/16 14:03:47;;;;;;;12.18;7.30;;;;;;;13.34;87.42;100171.06;10447766;28;20038;-79
2024/02/16 14:08:52;;;;;;;17.30;9.82;;;;;;;13.34;87.89;100179.16;10447513;28;20045;-80
2024/02/16 14:13:55;;;;;;;15.23;8.88;;;;;;;12.95;90.34;100183.81;10445393;28;20969;-81
2024/02/16 14:19:00;;;;;;;19.17;9.45;;;;;;;13.09;90.06;100188.75;10442987;28;20111;-82
2024/02/16 14:24:03;;;;;;;18.33;11.90;;;;;;;13.18;89.67;100181.63;10441749;28;20025;-80
2024/02/16 14:29:07;;;;;;;19.27;11.25;;;;;;;12.87;92.75;100199.88;10438919;28;20123;-81
2024/02/16 14:34:11;;;;;;;29.60;12.27;;;;;;;12.89;91.87;100203.25;10437326;28;20090;-80
2024/02/16 14:39:16;;;;;;;28.40;13.18;;;;;;;13.17;93.09;100217.69;10445779;28;20493;-81
2024/02/16 14:44:20;;;;;;;18.75;12.75;;;;;;;13.19;93.04;100218.38;10443972;28;20274;-79
2024/02/16 14:49:26;;;;;;;19.55;12.18;;;;;;;12.99;94.08;100228.34;10461247;28;20129;-80
2024/02/16 14:54:29;;;;;;;18.20;13.68;;;;;;;13.04;94.53;100248.50;10446451;28;20037;-80
2024/02/16 14:59:32;;;;;;;19.23;13.68;;;;;;;12.56;100.00;100262.84;10443589;28;20063;-80
2024/02/16 15:04:37;;;;;;;24.27;13.98;;;;;;;12.29;100.00;100266.19;10471889;28;20037;-80
2024/02/16 15:09:40;;;;;;;25.85;17.35;;;;;;;11.64;100.00;100275.56;10489625;28;20028;-79
2024/02/16 15:14:43;;;;;;;27.95;18.58;;;;;;;11.85;100.00;100283.59;10465746;28;20037;-81
2024/02/16 15:19:47;;;;;;;28.30;16.70;;;;;;;11.85;100.00;100289.81;10456296;28;20041;-81
2024/02/16 15:24:51;;;;;;;28.63;17.58;;;;;;;11.41;100.00;100291.84;10457236;28;20080;-81
2024/02/16 15:29:54;;;;;;;23.17;15.70;;;;;;;11.41;100.00;100301.75;10449770;28;20045;-79
2024/02/16 15:34:58;;;;;;;23.95;17.10;;;;;;;11.37;100.00;100303.84;10452786;28;20428;-80
2024/02/16 15:40:01;;;;;;;20.88;15.55;;;;;;;11.41;100.00;100320.56;10458017;28;20132;-80
2024/02/16 15:45:05;;;;;;;20.48;13.30;;;;;;;11.24;100.00;100301.38;10446033;28;20052;-79
2024/02/16 15:50:10;;;;;;;18.40;13.68;;;;;;;11.41;100.00;100320.56;10452521;28;20067;-82
2024/02/16 15:55:14;;;;;;;18.88;12.75;;;;;;;11.43;100.00;100313.22;10447024;28;20041;-79
2024/02/16 16:00:18;;;;;;;12.43;9.20;;;;;;;11.24;100.00;100332.75;10458423;28;20129;-80
2024/02/16 16:05:22;;;;;;;14.32;9.77;;;;;;;11.22;100.00;100340.13;10458756;28;20045;-79
2024/02/16 16:10:25;;;;;;;11.77;9.27;;;;;;;11.22;100.00;100350.88;10454830;28;20397;-81
2024/02/16 16:15:28;;;;;;;12.60;8.55;;;;;;;11.18;100.00;100358.34;10459544;28;20075;-81
2024/02/16 16:20:33;;;;;;;14.48;9.63;;;;;;;11.62;100.00;100369.84;10461294;28;20049;-81
2024/02/16 16:25:36;;;;;;;14.90;8.30;;;;;;;11.27;100.00;100379.09;10458205;28;20472;-79
2024/02/16 16:30:39;;;;;;;11.77;8.43;;;;;;;11.58;100.00;100395.31;10458668;28;20039;-79
2024/02/16 16:35:44;;;;;;;9.18;8.13;;;;;;;11.59;100.00;100394.31;10448410;28;20040;-78
2024/02/16 16:40:47;;;;;;;11.20;7.65;;;;;;;11.21;100.00;100398.41;10456301;28;20072;-80
2024/02/16 16:45:50;;;;;;;12.45;8.80;;;;;;;11.31;100.00;100408.41;10459939;28;20063;-79
2024/02/16 16:50:54;;;;;;;11.65;8.27;;;;;;;11.41;100.00;100423.66;10449605;28;20045;-80
2024/02/16 16:55:57;;;;;;;10.68;8.65;;;;;;;11.45;100.00;100424.22;10461161;28;20049;-80
2024/02/16 17:01:00;;;;;;;12.05;8.75;;;;;;;11.58;100.00;100429.44;10459617;28;20496;-79
2024/02/16 17:06:06;;;;;;;11.60;8.70;;;;;;;11.59;100.00;100456.19;10451048;28;20076;-79
2024/02/16 17:11:09;;;;;;;14.63;8.65;;;;;;;11.70;100.00;100463.38;10451221;28;20131;-80
2024/02/16 17:16:13;;;;;;;9.32;7.70;;;;;;;11.60;100.00;100478.56;10449895;28;20044;-79
2024/02/16 17:21:18;;;;;;;10.23;8.82;;;;;;;11.53;100.00;100483.63;10452154;28;20057;-80
2024/02/16 17:26:21;;;;;;;10.60;8.23;;;;;;;11.59;100.00;100504.63;10451854;28;20072;-80
2024/02/16 17:31:24;;;;;;;10.55;8.85;;;;;;;11.64;100.00;100509.63;10455701;28;20464;-83
2024/02/16 17:36:29;;;;;;;11.00;9.20;;;;;;;11.26;100.00;100508.28;10450387;28;20037;-81
2024/02/16 17:41:33;;;;;;;11.52;8.75;;;;;;;11.25;100.00;100533.47;10445075;28;20409;-81
2024/02/16 17:46:36;;;;;;;12.52;9.73;;;;;;;10.90;100.00;100538.97;10449252;28;20047;-80
2024/02/16 17:51:40;;;;;;;14.77;10.20;;;;;;;11.45;100.00;100543.44;10448542;28;20041;-79
2024/02/16 17:56:43;;;;;;;14.27;10.90;;;;;;;11.27;100.00;100553.88;10451828;28;20044;-79
2024/02/16 18:01:46;;;;;;;13.88;10.40;;;;;;;11.26;100.00;100562.06;10451490;28;20033;-79
2024/02/16 18:06:51;;;;;;;12.20;10.40;;;;;;;10.88;100.00;100574.03;10445946;28;20041;-80
2024/02/16 18:11:54;;;;;;;13.15;9.63;;;;;;;10.96;100.00;100582.31;10452870;28;20042;-80
2024/02/16 18:16:59;;;;;;;9.30;7.85;;;;;;;10.56;100.00;100590.00;10446831;28;20064;-79
2024/02/16 18:22:04;;;;;;;7.47;5.60;;;;;;;10.77;100.00;100599.03;10453545;28;20041;-80
2024/02/16 18:27:07;;;;;;;7.70;5.15;;;;;;;10.82;100.00;100612.97;10448900;28;20033;-79
2024/02/16 18:32:11;;;;;;;5.07;4.57;;;;;;;10.76;100.00;100621.53;10442487;28;20064;-80
2024/02/16 18:37:15;;;;;;;6.55;4.90;;;;;;;10.55;100.00;100629.41;10452808;28;20041;-80
2024/02/16 18:42:18;;;;;;;5.53;4.38;;;;;;;10.56;100.00;100641.88;10440931;28;20049;-80
2024/02/16 18:47:22;;;;;;;3.78;3.47;;;;;;;10.84;100.00;100645.13;10448426;28;20052;-80
2024/02/16 18:52:26;;;;;;;5.63;4.38;;;;;;;10.58;100.00;100656.03;10451804;28;20041;-80
2024/02/16 18:57:30;;;;;;;5.05;4.40;;;;;;;10.54;100.00;100654.56;10456147;28;20052;-80
2024/02/16 19:02:36;;;;;;;5.32;4.45;;;;;;;10.06;100.00;100667.19;10448400;28;20068;-79
2024/02/16 19:07:40;;;;;;;5.85;4.63;;;;;;;10.33;100.00;100680.38;10441303;28;20087;-79
2024/02/16 19:12:43;;;;;;;5.72;4.63;;;;;;;10.34;100.00;100680.28;10451406;28;20050;-80
2024/02/16 19:17:46;;;;;;;5.70;5.07;;;;;;;10.23;100.00;100696.34;10454158;28;20045;-80
2024/02/16 19:22:53;;;;;;;4.95;4.47;;;;;;;10.03;100.00;100695.09;10452462;28;20435;-79
2024/02/16 19:27:57;;;;;;;5.90;5.15;;;;;;;10.41;100.00;100698.59;10448318;28;20099;-80
2024/02/16 19:33:00;;;;;;;5.47;4.97;;;;;;;10.41;100.00;100704.81;10448773;28;20068;-79
2024/02/16 19:38:05;;;;;;;6.18;5.50;;;;;;;10.63;100.00;100711.25;10449258;28;20041;-79
2024/02/16 19:43:09;;;;;;;7.57;5.53;;;;;;;10.38;100.00;100723.84;10451233;28;20087;-81
2024/02/16 19:48:12;;;;;;;9.75;5.45;;;;;;;10.57;100.00;100729.56;10464833;28;20045;-81
2024/02/16 19:53:16;;;;;;;7.65;6.85;;;;;;;10.37;100.00;100738.25;10453071;28;20049;-80
2024/02/16 19:58:20;;;;;;;6.78;5.75;;;;;;;10.22;100.00;100748.28;10450184;28;20072;-80
2024/02/16 20:03:24;;;;;;;7.35;6.65;;;;;;;10.05;100.00;100754.06;10452199;28;20699;-80
2024/02/16 20:08:28;;;;;;;6.97;6.28;;;;;;;10.52;100.00;100765.78;10454997;28;20041;-80
2024/02/16 20:13:31;;;;;;;6.57;5.97;;;;;;;10.40;100.00;100770.25;10449911;28;20068;-78
2024/02/16 20:18:34;;;;;;;6.85;5.32;;;;;;;10.32;100.00;100789.63;10458818;28;20057;-79
2024/02/16 20:23:39;;;;;;;6.90;5.65;;;;;;;10.04;100.00;100797.94;10453004;28;20038;-79
2024/02/16 20:28:42;;;;;;;7.07;6.35;;;;;;;10.13;100.00;100800.00;10469296;28;20559;-78
2024/02/16 20:33:45;;;;;;;10.77;8.80;;;;;;;10.41;100.00;100817.63;10483590;28;20057;-78
2024/02/16 20:38:49;;;;;;;12.50;9.43;;;;;;;10.42;100.00;100818.47;10460216;28;20069;-79
2024/02/16 20:43:52;;;;;;;12.43;10.30;;;;;;;10.00;100.00;100826.84;10462368;28;20033;-80
2024/02/16 20:48:55;;;;;;;10.50;9.10;;;;;;;10.28;100.00;100838.28;10454035;28;20129;-78
2024/02/16 20:54:01;;;;;;;11.50;8.00;;;;;;;10.22;100.00;100834.22;10460709;28;20124;-80
2024/02/16 20:59:04;;;;;;;11.13;9.43;;;;;;;10.40;100.00;100845.47;10449412;28;20045;-79
2024/02/16 21:04:07;;;;;;;10.00;8.45;;;;;;;10.47;100.00;100856.59;10444686;28;20038;-80
2024/02/16 21:09:11;;;;;;;12.93;9.55;;;;;;;10.33;100.00;100855.75;10455796;28;20075;-79
2024/02/16 21:14:15;;;;;;;12.57;9.00;;;;;;;10.08;100.00;100854.00;10452017;28;20080;-79
2024/02/16 21:19:20;;;;;;;17.15;10.15;;;;;;;9.89;100.00;100870.53;10456173;28;20064;-80
2024/02/16 21:24:25;;;;;;;14.65;10.70;;;;;;;9.85;100.00;100873.53;10455946;28;20063;-80
2024/02/16 21:29:28;;;;;;;16.33;11.15;;;;;;;10.12;100.00;100871.63;10457310;28;20041;-80
2024/02/16 21:34:31;;;;;;;16.83;10.48;;;;;;;9.88;100.00;100881.41;10449042;28;20072;-80
2024/02/16 21:39:35;;;;;;;17.48;11.50;;;;;;;9.84;100.00;100883.41;10444735;28;20041;-80
2024/02/16 21:44:40;;;;;;;15.68;11.75;;;;;;;9.80;100.00;100897.16;10453033;28;20505;-79
2024/02/16 21:49:43;;;;;;;15.05;11.27;;;;;;;9.91;100.00;100900.81;10451284;28;20073;-79
2024/02/16 21:54:47;;;;;;;18.35;12.65;;;;;;;9.87;100.00;100906.50;10453707;28;20071;-79
2024/02/16 21:59:50;;;;;;;21.83;13.45;;;;;;;9.86;100.00;100908.34;10453634;28;20052;-79
2024/02/16 22:04:53;;;;;;;20.42;12.43;;;;;;;9.79;100.00;100912.41;10448471;28;20072;-79
2024/02/16 22:09:58;;;;;;;20.73;13.27;;;;;;;10.05;100.00;100918.63;10448268;28;20052;-80
2024/02/16 22:15:01;;;;;;;18.85;12.57;;;;;;;10.22;100.00;100920.13;10459053;28;20508;-79
2024/02/16 22:20:06;;;;;;;24.80;14.38;;;;;;;9.88;100.00;100927.03;10457197;28;20040;-79
2024/02/16 22:25:10;;;;;;;24.63;14.43;;;;;;;9.96;100.00;100939.91;10449664;28;20112;-80
2024/02/16 22:30:13;;;;;;;23.58;14.70;;;;;;;9.60;100.00;100942.31;10444441;28;20381;-80
2024/02/16 22:35:17;;;;;;;22.33;14.40;;;;;;;10.07;100.00;100951.63;10448683;28;20075;-80
2024/02/16 22:40:21;;;;;;;24.08;14.25;;;;;;;9.87;100.00;100954.81;10445251;28;20160;-79
2024/02/16 22:45:24;;;;;;;22.52;14.00;;;;;;;9.80;100.00;100956.19;10443670;28;20037;-80
2024/02/16 22:50:27;;;;;;;24.48;13.73;;;;;;;9.93;100.00;100962.47;10448882;28;20045;-79
2024/02/16 22:55:32;;;;;;;22.65;15.05;;;;;;;9.90;100.00;100973.38;10447017;28;20087;-79
2024/02/16 23:00:39;;;;;;;22.45;14.30;;;;;;;9.92;100.00;100976.81;10448668;28;20040;-80
2024/02/16 23:05:45;;;;;;;24.50;16.42;;;;;;;9.85;100.00;100980.88;10442556;28;20037;-80
2024/02/16 23:10:50;;;;;;;26.35;16.92;;;;;;;9.89;100.00;100993.13;10446786;28;20068;-80